Flugplatz Schleswig-Kropp (EDXC)

Hier findest Du alle Informationen zum Flugplatz Schleswig-Kropp (EDXC).

Informationen für Piloten zum Flugplatz Schleswig-Kropp

Hier findest Du alle relevanten Informationen, die Du als Pilot benötigst, um Schleswig-Kropp anzufliegen.

Flugplatz: Schleswig-Kropp ICAO-Code: EDXC
Frequenz Turm: 118,675 Mhz GAFOR Gebiet: 4
Frequenz Ground: 118,675 Mhz Mogas: ja
Platzrunde: S/N 600 ft Landegebühr: -
Platzhöhe: - Sunrise: 02:49 Uhr UTC
Pisten: 09/27 - 880 m x 30 m, GRAS Sunset: 20:02 Uhr UTC

Mitglieder, die in Schleswig-Kropp fliegen

Flugwetter am Flugplatz Schleswig-Kropp

Die METAR Information stammen aus EDHK (39.48 km entfernt).

METAR Code:
2022/06/30 08:50
EDHK 300850Z 11008KT 070V140 CAVOK 21/13 Q1014

Flugschulen am Flugplatz Schleswig-Kropp

Am Flugplatz Schleswig-Kropp gibt es eine Flugschule.

Benachbarte Flugplätze und Flugschulen

Es gibt 11 weitere Flugplätze in einem Umkreis von 50 km um den Flugplatz Schleswig-Kropp.

Jetzt anmelden

Passwort vergessen

Umfrage Archiv

Sendet Ihr ADS-B und/oder FLARM?

Ja
83.1 %
Nein
16.9 %
Stimmen: 177 | Diskussion
Anzeige: Roland Aircraft
Statistik Alle Mitglieder

Aktuell sind 50 Besucher online, davon 2 Mitglieder und 48 Gäste.


Mitglieder online:
StevenOS  raller 

Anzeige: ULPower Aero Engines Anzeige: Pocket FMS